METAR Data
IDs: Format: Raw Decoded Include TAF

Data at: 0221 UTC 25 Feb 2021

ESNV 250150Z AUTO 20007KT 9999 BKN100/// M00/M02 Q1002